Time;durP1;ratioP1;P1;durP2;ratioP2;P2;SDS_P1;SDS_P2;PMS_P1;PMS_P2;Temp;Humidity;BMP_temperature;BMP_pressure;BME280_temperature;BME280_humidity;BME280_pressure;Samples;Min_cycle;Max_cycle;Signal;HPM_P1;HPM_P2
2022/10/07 00:00:23;;;;;;;10.27;4.93;;;12.60;72.10;;;;;;5133350;27;20035;-60
2022/10/07 00:02:49;;;;;;;11.27;5.35;;;12.60;72.10;;;;;;5115478;28;20062;-60
2022/10/07 00:05:14;;;;;;;11.20;5.18;;;12.60;72.10;;;;;;5117111;28;20395;-60
2022/10/07 00:07:40;;;;;;;11.02;4.82;;;12.60;72.20;;;;;;5133975;27;20057;-59
2022/10/07 00:10:06;;;;;;;9.88;4.75;;;12.60;72.20;;;;;;5117879;28;20387;-60
2022/10/07 00:12:32;;;;;;;10.77;5.15;;;12.60;72.20;;;;;;5117235;27;20061;-60
2022/10/07 00:14:58;;;;;;;12.10;5.60;;;12.50;72.20;;;;;;5117630;28;20024;-60
2022/10/07 00:17:23;;;;;;;11.45;5.35;;;12.50;72.20;;;;;;5131930;27;20106;-60
2022/10/07 00:19:49;;;;;;;10.63;4.57;;;12.50;72.20;;;;;;5116952;28;20034;-60
2022/10/07 00:22:15;;;;;;;12.63;4.80;;;12.50;72.20;;;;;;5115982;28;20032;-60
2022/10/07 00:24:40;;;;;;;13.15;4.55;;;12.50;72.20;;;;;;5116881;28;20076;-60
2022/10/07 00:27:06;;;;;;;11.70;4.80;;;12.50;72.20;;;;;;5117086;28;20055;-60
2022/10/07 00:29:32;;;;;;;11.57;5.25;;;12.50;72.30;;;;;;5117916;28;20016;-60
2022/10/07 00:31:57;;;;;;;11.75;4.60;;;12.40;72.30;;;;;;5116726;27;20490;-59
2022/10/07 00:34:23;;;;;;;12.77;5.07;;;12.40;72.90;;;;;;5117499;28;20027;-60
2022/10/07 00:36:49;;;;;;;12.23;4.90;;;12.40;72.30;;;;;;5117099;28;20325;-60
2022/10/07 00:39:16;;;;;;;11.65;5.13;;;12.40;72.30;;;;;;5116519;28;20050;-60
2022/10/07 00:41:50;;;;;;;12.10;4.82;;;12.40;72.40;;;;;;5116464;28;20386;-60
2022/10/07 00:44:32;;;;;;;10.05;4.60;;;12.30;73.00;;;;;;5116635;27;20384;-60
2022/10/07 00:47:00;;;;;;;;;;;12.30;72.40;;;;;;5117312;27;20118;-60
2022/10/07 00:49:29;;;;;;;9.18;3.75;;;12.30;72.40;;;;;;5115663;28;19908;-60
2022/10/07 00:51:55;;;;;;;10.52;3.95;;;12.30;72.50;;;;;;5116094;27;20039;-59
2022/10/07 00:54:21;;;;;;;8.63;4.25;;;12.20;72.40;;;;;;5117198;28;20061;-59
2022/10/07 00:56:49;;;;;;;10.20;4.22;;;12.20;72.40;;;;;;5132998;27;20120;-59
2022/10/07 00:59:17;;;;;;;10.88;4.70;;;12.20;72.50;;;;;;5115414;28;20088;-58
2022/10/07 01:01:43;;;;;;;10.40;5.43;;;12.20;72.50;;;;;;5115223;27;20024;-59
2022/10/07 01:04:14;;;;;;;11.57;4.65;;;12.20;72.50;;;;;;5132798;27;20106;-60
2022/10/07 01:06:41;;;;;;;9.75;4.13;;;12.20;72.50;;;;;;5122128;27;20423;-59
2022/10/07 01:09:09;;;;;;;11.98;4.70;;;12.20;72.50;;;;;;5116504;28;20478;-60
2022/10/07 01:11:49;;;;;;;8.27;4.30;;;12.20;72.60;;;;;;5130297;27;20047;-60
2022/10/07 01:14:34;;;;;;;10.65;3.92;;;12.10;72.50;;;;;;5098833;28;20031;-59
2022/10/07 01:17:14;;;;;;;10.90;4.78;;;12.10;72.50;;;;;;5115445;28;20016;-59
2022/10/07 01:20:10;;;;;;;9.93;4.07;;;12.10;72.60;;;;;;5116310;28;20126;-60
2022/10/07 01:23:13;;;;;;;11.70;4.40;;;12.10;72.50;;;;;;5114190;27;20042;-60
2022/10/07 01:25:57;;;;;;;9.90;4.03;;;12.10;72.60;;;;;;5116492;28;20418;-60
2022/10/07 01:28:38;;;;;;;9.15;4.05;;;12.00;72.60;;;;;;5116499;28;20031;-60
2022/10/07 01:31:07;;;;;;;12.57;4.55;;;12.00;72.60;;;;;;5131598;27;20053;-59
2022/10/07 01:33:35;;;;;;;8.45;4.28;;;12.00;72.60;;;;;;5114192;27;20383;-60
2022/10/07 01:36:06;;;;;;;9.13;3.88;;;12.00;72.70;;;;;;5132165;27;20031;-58
2022/10/07 01:38:35;;;;;;;10.55;4.68;;;12.00;72.80;;;;;;5129338;27;20430;-61
2022/10/07 01:41:07;;;;;;;8.88;4.47;;;12.00;72.90;;;;;;5132252;27;20038;-60
2022/10/07 01:43:33;;;;;;;9.07;4.05;;;12.00;72.90;;;;;;5116287;28;20032;-61
2022/10/07 01:46:00;;;;;;;9.82;3.70;;;12.00;72.90;;;;;;5116120;28;20054;-59
2022/10/07 01:48:26;;;;;;;11.85;4.75;;;12.00;72.90;;;;;;5114814;28;20375;-60
2022/10/07 01:50:53;;;;;;;10.95;4.55;;;12.00;72.90;;;;;;5131736;27;20333;-60
2022/10/07 01:53:48;;;;;;;15.30;4.55;;;11.90;72.90;;;;;;5113572;27;20464;-61
2022/10/07 01:56:23;;;;;;;9.32;3.75;;;11.90;72.90;;;;;;5115928;28;20573;-59
2022/10/07 01:59:38;;;;;;;10.60;4.97;;;12.00;73.00;;;;;;5132025;27;20034;-59
2022/10/07 02:02:13;;;;;;;10.25;4.30;;;11.90;72.90;;;;;;5093706;28;20109;-59
2022/10/07 02:05:16;;;;;;;11.65;4.15;;;11.90;72.90;;;;;;5131912;27;20027;-59
2022/10/07 02:08:01;;;;;;;11.40;4.47;;;11.90;73.00;;;;;;5131598;27;20031;-58
2022/10/07 02:10:40;;;;;;;10.63;4.20;;;11.90;73.00;;;;;;5113989;28;20122;-60
2022/10/07 02:13:22;;;;;;;11.35;4.30;;;11.90;73.00;;;;;;5130734;27;20039;-58
2022/10/07 02:16:00;;;;;;;11.73;4.05;;;11.90;73.00;;;;;;5118346;27;20027;-59
2022/10/07 02:18:30;;;;;;;11.63;4.50;;;11.80;73.10;;;;;;5129725;27;20043;-60
2022/10/07 02:20:56;;;;;;;9.20;4.07;;;11.80;73.10;;;;;;5113112;27;20153;-60
2022/10/07 02:23:24;;;;;;;9.48;3.65;;;11.80;73.10;;;;;;5130771;27;20039;-60
2022/10/07 02:25:53;;;;;;;10.13;3.65;;;11.80;73.20;;;;;;5132511;27;20410;-60
2022/10/07 02:28:22;;;;;;;8.60;3.97;;;11.80;73.20;;;;;;5129821;27;20024;-60
2022/10/07 02:30:54;;;;;;;12.07;3.88;;;11.80;73.20;;;;;;5131180;27;20031;-60
2022/10/07 02:33:23;;;;;;;11.17;4.50;;;11.80;73.20;;;;;;5142800;27;20023;-60
2022/10/07 02:36:09;;;;;;;10.13;3.50;;;11.80;73.20;;;;;;5131358;27;20273;-60
2022/10/07 02:38:38;;;;;;;11.43;3.50;;;11.80;73.20;;;;;;5106813;28;20464;-60
2022/10/07 02:41:30;;;;;;;10.65;4.53;;;11.80;73.30;;;;;;5113364;28;20356;-60
2022/10/07 02:44:18;;;;;;;9.20;3.17;;;11.70;73.30;;;;;;5119817;27;20036;-60
2022/10/07 02:46:53;;;;;;;9.10;3.63;;;11.70;73.30;;;;;;5130270;27;20027;-60
2022/10/07 02:49:22;;;;;;;9.88;3.30;;;11.70;73.30;;;;;;5130811;27;20031;-60
2022/10/07 02:51:57;;;;;;;8.35;3.53;;;11.70;73.30;;;;;;5111599;28;20020;-60
2022/10/07 02:54:33;;;;;;;8.88;3.28;;;11.70;73.40;;;;;;5112753;28;20023;-60
2022/10/07 02:57:00;;;;;;;9.98;3.92;;;11.70;73.40;;;;;;5115135;28;20111;-59
2022/10/07 02:59:28;;;;;;;8.23;3.83;;;11.70;73.50;;;;;;5114174;28;20027;-58
2022/10/07 03:01:58;;;;;;;10.38;3.90;;;11.70;73.50;;;;;;5117481;28;20031;-60
2022/10/07 03:04:24;;;;;;;10.30;3.30;;;11.70;73.50;;;;;;5117072;28;20024;-59
2022/10/07 03:06:51;;;;;;;12.02;3.70;;;11.60;74.10;;;;;;5131200;28;20341;-60
2022/10/07 03:09:17;;;;;;;9.02;3.58;;;11.70;73.50;;;;;;5113719;28;20397;-60
2022/10/07 03:11:42;;;;;;;11.93;3.70;;;11.60;73.40;;;;;;5112883;28;20023;-60
2022/10/07 03:14:09;;;;;;;9.80;3.65;;;11.60;73.50;;;;;;5117747;28;20019;-59
2022/10/07 03:16:35;;;;;;;10.90;4.00;;;11.60;73.50;;;;;;5118404;28;20096;-60
2022/10/07 03:19:01;;;;;;;10.27;3.65;;;11.60;73.60;;;;;;5116478;27;20055;-60
2022/10/07 03:21:33;;;;;;;10.43;3.30;;;11.60;73.60;;;;;;5123363;27;20723;-59
2022/10/07 03:24:03;;;;;;;7.50;3.20;;;11.60;73.60;;;;;;5105721;27;20027;-60
2022/10/07 03:26:32;;;;;;;14.00;3.72;;;11.60;73.60;;;;;;5105713;27;20073;-60
2022/10/07 03:28:59;;;;;;;10.18;3.80;;;11.60;73.60;;;;;;5117180;27;20016;-58
2022/10/07 03:31:26;;;;;;;11.25;3.80;;;11.50;73.60;;;;;;5118709;27;20428;-60
2022/10/07 03:33:55;;;;;;;9.00;3.60;;;11.50;73.60;;;;;;5114167;27;20020;-57
2022/10/07 03:36:22;;;;;;;8.45;3.50;;;11.50;74.30;;;;;;5122985;27;20020;-60
2022/10/07 03:38:49;;;;;;;8.10;3.60;;;11.50;73.60;;;;;;5110502;27;20024;-59
2022/10/07 03:41:16;;;;;;;9.15;3.50;;;11.50;73.60;;;;;;5116292;27;20024;-59
2022/10/07 03:43:43;;;;;;;7.88;3.15;;;11.50;73.70;;;;;;5115804;27;20059;-60
2022/10/07 03:46:11;;;;;;;9.38;4.03;;;11.40;73.70;;;;;;5114514;27;20464;-59
2022/10/07 03:48:38;;;;;;;8.65;3.50;;;11.40;73.70;;;;;;5099628;28;20114;-59
2022/10/07 03:51:04;;;;;;;10.38;2.92;;;11.40;73.70;;;;;;5102897;27;20016;-59
2022/10/07 03:53:32;;;;;;;11.88;4.15;;;11.40;73.70;;;;;;5112754;27;20456;-60
2022/10/07 03:55:59;;;;;;;7.68;3.80;;;11.40;73.70;;;;;;5122297;27;20097;-59
2022/10/07 03:58:26;;;;;;;9.77;4.18;;;11.40;73.80;;;;;;5125438;27;20463;-59
2022/10/07 04:01:02;;;;;;;10.60;3.67;;;11.40;73.80;;;;;;5117966;27;20107;-59
2022/10/07 04:03:28;;;;;;;11.50;4.13;;;11.40;73.80;;;;;;5099268;28;20031;-60
2022/10/07 04:05:59;;;;;;;9.13;3.88;;;11.30;73.80;;;;;;5122389;27;20027;-60
2022/10/07 04:08:28;;;;;;;13.40;4.00;;;11.40;73.80;;;;;;5111187;28;20156;-60
2022/10/07 04:10:56;;;;;;;11.70;3.72;;;11.40;73.90;;;;;;5120274;27;20016;-60
2022/10/07 04:13:22;;;;;;;11.82;4.10;;;11.30;73.80;;;;;;5113625;27;20028;-60
2022/10/07 04:15:48;;;;;;;10.13;4.03;;;11.30;73.90;;;;;;5122469;27;20360;-60
2022/10/07 04:18:14;;;;;;;9.00;3.85;;;11.30;73.90;;;;;;5115530;28;20043;-60
2022/10/07 04:20:40;;;;;;;10.57;4.60;;;11.30;74.00;;;;;;5125239;27;20521;-59
2022/10/07 04:23:07;;;;;;;12.10;5.07;;;11.30;74.00;;;;;;5134303;27;20479;-60
2022/10/07 04:25:32;;;;;;;10.70;4.60;;;11.30;74.00;;;;;;5116943;28;20081;-60
2022/10/07 04:28:04;;;;;;;11.15;4.47;;;11.30;74.00;;;;;;5116266;28;20024;-60
2022/10/07 04:30:32;;;;;;;12.30;4.68;;;11.30;74.00;;;;;;5116600;28;20433;-59
2022/10/07 04:33:00;;;;;;;10.63;4.40;;;11.30;74.00;;;;;;5116229;28;20042;-59
2022/10/07 04:35:25;;;;;;;8.85;4.25;;;11.30;74.10;;;;;;5116567;28;20479;-60
2022/10/07 04:37:53;;;;;;;10.60;4.38;;;11.20;74.00;;;;;;5115627;27;20076;-59
2022/10/07 04:40:22;;;;;;;11.70;4.68;;;11.20;74.00;;;;;;5104172;28;20128;-60
2022/10/07 04:45:35;;;;;;;9.15;4.30;;;11.20;74.10;;;;;;5116529;28;20028;-60
2022/10/07 04:48:04;;;;;;;12.32;3.85;;;11.20;74.70;;;;;;5131547;27;20089;-60
2022/10/07 04:50:31;;;;;;;8.93;4.10;;;11.20;74.10;;;;;;5133215;27;20110;-60
2022/10/07 04:52:57;;;;;;;12.52;4.32;;;11.20;74.10;;;;;;5117911;27;20039;-60
2022/10/07 04:55:27;;;;;;;10.52;4.00;;;11.20;74.20;;;;;;5132541;27;20035;-60
2022/10/07 04:57:52;;;;;;;8.88;3.75;;;11.20;74.20;;;;;;5113962;27;20027;-59
2022/10/07 05:00:18;;;;;;;7.88;3.45;;;11.20;74.20;;;;;;5116699;28;20024;-60
2022/10/07 05:02:49;;;;;;;10.20;3.90;;;11.20;74.20;;;;;;5115596;27;20065;-60
2022/10/07 05:05:15;;;;;;;11.57;3.97;;;11.10;74.20;;;;;;5131961;27;20076;-59
2022/10/07 05:07:41;;;;;;;10.18;3.65;;;11.10;74.20;;;;;;5111410;28;20032;-60
2022/10/07 05:10:07;;;;;;;11.07;3.47;;;11.10;74.20;;;;;;5132688;27;20035;-60
2022/10/07 05:12:33;;;;;;;9.48;3.72;;;11.10;74.20;;;;;;5115787;28;20107;-60
2022/10/07 05:15:00;;;;;;;8.77;3.85;;;11.10;74.10;;;;;;5115320;27;20126;-59
2022/10/07 05:17:26;;;;;;;9.32;3.30;;;11.10;74.20;;;;;;5115580;27;20024;-60
2022/10/07 05:19:51;;;;;;;9.13;3.47;;;11.10;74.20;;;;;;5115297;28;20349;-60
2022/10/07 05:22:17;;;;;;;9.15;3.60;;;11.10;74.20;;;;;;5097842;28;20451;-59
2022/10/07 05:24:43;;;;;;;13.13;3.72;;;11.00;74.20;;;;;;5113844;27;20355;-60
2022/10/07 05:27:09;;;;;;;12.70;3.88;;;11.00;74.30;;;;;;5131697;27;20016;-59
2022/10/07 05:29:35;;;;;;;9.88;3.70;;;11.00;74.30;;;;;;5114626;27;20455;-60
2022/10/07 05:32:01;;;;;;;8.38;3.60;;;11.00;74.30;;;;;;5095878;28;20028;-59
2022/10/07 05:34:27;;;;;;;9.60;3.60;;;11.00;74.20;;;;;;5120195;27;20032;-60
2022/10/07 05:36:53;;;;;;;8.27;3.30;;;11.00;74.30;;;;;;5114505;28;20036;-59
2022/10/07 05:39:20;;;;;;;8.88;3.20;;;11.00;74.40;;;;;;5116499;27;20084;-59
2022/10/07 05:41:49;;;;;;;9.23;3.72;;;11.00;74.40;;;;;;5124586;27;20023;-60
2022/10/07 05:44:18;;;;;;;9.25;3.25;;;11.00;74.40;;;;;;5119868;27;20034;-60
2022/10/07 05:46:46;;;;;;;9.73;3.40;;;10.90;74.40;;;;;;5133100;27;20410;-60
2022/10/07 05:49:13;;;;;;;10.38;3.80;;;11.00;74.40;;;;;;5120204;27;20020;-60
2022/10/07 05:51:40;;;;;;;13.68;3.95;;;11.00;74.40;;;;;;5133872;27;20015;-60
2022/10/07 05:54:06;;;;;;;9.27;4.03;;;11.00;74.40;;;;;;5132015;27;20016;-60
2022/10/07 05:56:38;;;;;;;10.70;3.78;;;11.00;74.40;;;;;;5115256;27;20019;-60
2022/10/07 05:59:04;;;;;;;10.43;3.67;;;10.90;74.40;;;;;;5113766;27;20023;-60
2022/10/07 06:01:30;;;;;;;9.80;3.80;;;11.00;74.50;;;;;;5114121;28;20356;-60
2022/10/07 06:04:00;;;;;;;11.50;3.53;;;11.00;74.60;;;;;;5115283;27;20024;-60
2022/10/07 06:06:30;;;;;;;8.15;3.47;;;10.90;75.10;;;;;;5131107;27;20035;-60
2022/10/07 06:13:06;;;;;;;8.88;3.97;;;11.00;74.60;;;;;;5131727;27;20092;-60
2022/10/07 06:14:29;;;;;;;12.57;4.32;;;11.00;74.60;;;;;;5114461;27;20032;-60
2022/10/07 06:16:54;;;;;;;8.25;3.70;;;11.00;74.50;;;;;;5113841;27;20031;-60
2022/10/07 06:19:22;;;;;;;10.13;3.38;;;11.00;74.60;;;;;;5113809;28;20475;-60
2022/10/07 06:21:51;;;;;;;10.45;4.32;;;11.00;74.60;;;;;;5114535;28;20027;-60
2022/10/07 06:24:17;;;;;;;9.77;3.78;;;11.00;74.60;;;;;;5113648;27;20380;-60
2022/10/07 06:26:42;;;;;;;11.82;3.67;;;11.10;74.70;;;;;;5112823;27;20015;-61
2022/10/07 06:29:09;;;;;;;9.98;4.07;;;11.10;74.80;;;;;;5121322;27;20073;-61
2022/10/07 06:31:35;;;;;;;12.43;3.80;;;11.10;74.80;;;;;;5114273;27;20065;-61
2022/10/07 06:34:03;;;;;;;10.98;3.92;;;11.20;74.90;;;;;;5114129;28;20523;-62
2022/10/07 06:36:29;;;;;;;11.68;3.95;;;11.20;74.90;;;;;;5114456;28;20081;-61
2022/10/07 06:38:56;;;;;;;15.63;3.90;;;11.20;74.80;;;;;;5129941;27;20080;-61
2022/10/07 06:41:28;;;;;;;14.48;4.50;;;11.30;74.90;;;;;;5113370;28;20028;-61
2022/10/07 06:44:14;;;;;;;13.85;4.63;;;11.30;74.90;;;;;;5114509;27;20065;-61
2022/10/07 06:46:39;;;;;;;10.15;3.63;;;11.30;74.90;;;;;;5114291;28;20020;-61
2022/10/07 06:49:05;;;;;;;10.75;4.72;;;11.40;74.90;;;;;;5113653;28;20035;-61
2022/10/07 06:51:31;;;;;;;9.80;3.95;;;11.40;75.00;;;;;;5117104;28;20088;-61
2022/10/07 06:53:56;;;;;;;10.93;3.65;;;11.50;75.00;;;;;;5114265;28;20089;-60
2022/10/07 06:56:23;;;;;;;9.80;3.78;;;11.50;75.10;;;;;;5121035;28;20023;-61
2022/10/07 06:58:49;;;;;;;13.20;3.97;;;11.50;75.10;;;;;;5141073;27;20465;-60
2022/10/07 07:01:20;;;;;;;9.20;4.22;;;11.60;75.20;;;;;;5130493;28;20077;-61
2022/10/07 07:03:46;;;;;;;9.32;3.72;;;11.60;75.10;;;;;;5114711;28;20436;-61
2022/10/07 07:06:12;;;;;;;10.35;4.00;;;11.70;75.20;;;;;;5114659;28;20020;-61
2022/10/07 07:08:40;;;;;;;11.30;4.78;;;11.80;75.30;;;;;;5129905;28;20012;-61
2022/10/07 07:14:01;;;;;;;11.18;4.30;;;11.90;75.50;;;;;;5113757;28;20031;-61
2022/10/07 07:16:27;;;;;;;9.90;3.55;;;11.90;76.10;;;;;;5114455;28;20436;-62
2022/10/07 07:18:55;;;;;;;16.52;3.65;;;12.00;75.50;;;;;;5113519;28;20043;-61
2022/10/07 07:21:24;;;;;;;10.70;3.15;;;12.20;75.40;;;;;;5131072;28;20034;-59
2022/10/07 07:23:50;;;;;;;13.23;3.53;;;12.40;75.30;;;;;;5112681;28;20034;-60
2022/10/07 07:26:19;;;;;;;13.55;3.95;;;12.50;75.00;;;;;;5113318;28;20363;-60
2022/10/07 07:28:53;;;;;;;16.30;4.00;;;12.60;74.70;;;;;;5114668;28;20458;-60
2022/10/07 07:31:20;;;;;;;12.82;3.45;;;12.70;74.60;;;;;;5130787;28;20019;-61
2022/10/07 07:33:51;;;;;;;16.38;4.78;;;12.70;74.50;;;;;;5114314;28;20028;-61
2022/10/07 07:36:22;;;;;;;15.43;4.60;;;12.80;74.50;;;;;;5130344;28;20035;-61
2022/10/07 07:38:51;;;;;;;11.90;3.63;;;12.90;75.10;;;;;;5104227;28;20110;-61
2022/10/07 07:41:23;;;;;;;11.20;3.33;;;12.90;74.30;;;;;;5116450;28;20040;-61
2022/10/07 07:43:54;;;;;;;12.00;4.25;;;13.00;74.40;;;;;;5130361;28;20034;-60
2022/10/07 07:46:22;;;;;;;10.60;4.10;;;13.00;74.20;;;;;;5113631;28;20024;-60
2022/10/07 07:48:50;;;;;;;11.23;4.15;;;13.10;74.20;;;;;;5129742;28;20016;-61
2022/10/07 07:51:17;;;;;;;9.80;3.88;;;13.10;74.10;;;;;;5095415;28;20111;-61
2022/10/07 07:53:43;;;;;;;16.42;4.55;;;13.20;74.00;;;;;;5112884;28;20461;-60
2022/10/07 07:56:11;;;;;;;13.07;4.03;;;13.20;74.00;;;;;;5113029;28;20439;-61
2022/10/07 07:58:37;;;;;;;17.02;4.55;;;13.30;73.90;;;;;;5128080;27;20047;-60
2022/10/07 08:01:06;;;;;;;11.48;4.22;;;13.40;73.80;;;;;;5116511;28;20028;-60
2022/10/07 08:03:36;;;;;;;13.20;4.18;;;13.50;73.60;;;;;;5116787;28;20065;-61
2022/10/07 08:06:04;;;;;;;12.35;4.22;;;13.70;73.40;;;;;;5120226;27;20016;-61
2022/10/07 08:08:31;;;;;;;14.32;4.95;;;13.80;73.10;;;;;;5132395;27;20111;-61
2022/10/07 08:11:05;;;;;;;15.30;4.45;;;14.00;72.60;;;;;;5132531;27;20390;-62
2022/10/07 08:13:31;;;;;;;11.90;3.83;;;14.30;72.20;;;;;;5113639;27;20038;-60
2022/10/07 08:15:58;;;;;;;13.82;4.13;;;14.40;71.70;;;;;;5116350;28;20027;-61
2022/10/07 08:18:24;;;;;;;13.88;3.85;;;14.40;71.60;;;;;;5133962;27;20421;-61
2022/10/07 08:21:01;;;;;;;15.73;3.92;;;14.40;71.70;;;;;;5116016;28;20106;-60
2022/10/07 08:23:29;;;;;;;12.27;4.13;;;14.40;71.70;;;;;;5132703;27;20172;-62
2022/10/07 08:25:57;;;;;;;11.57;3.90;;;14.30;71.90;;;;;;5133315;27;20023;-61
2022/10/07 08:28:24;;;;;;;11.05;3.35;;;14.30;72.00;;;;;;5116689;27;20011;-61
2022/10/07 08:30:53;;;;;;;11.88;3.70;;;14.20;72.00;;;;;;5096300;28;20020;-61
2022/10/07 08:33:20;;;;;;;13.82;3.40;;;14.20;72.10;;;;;;5132868;27;20117;-61
2022/10/07 08:35:59;;;;;;;11.85;3.92;;;14.30;72.20;;;;;;5116968;28;20474;-61
2022/10/07 08:38:28;;;;;;;10.77;3.35;;;14.30;72.00;;;;;;5117633;27;20031;-61
2022/10/07 08:40:54;;;;;;;14.95;3.35;;;14.60;71.70;;;;;;5130623;27;20077;-61
2022/10/07 08:43:23;;;;;;;12.10;3.33;;;14.80;71.70;;;;;;5117241;28;20364;-61
2022/10/07 08:45:51;;;;;;;9.75;2.83;;;15.00;70.90;;;;;;5132133;27;20031;-61
2022/10/07 08:48:28;;;;;;;8.60;2.47;;;15.30;70.30;;;;;;5115915;28;20085;-61
2022/10/07 08:51:18;;;;;;;10.85;2.78;;;15.70;69.40;;;;;;5118398;28;20042;-61
2022/10/07 08:53:49;;;;;;;9.77;3.05;;;16.10;68.70;;;;;;5111636;27;20447;-61
2022/10/07 08:56:22;;;;;;;11.32;2.80;;;16.40;68.00;;;;;;5133594;27;20114;-61
2022/10/07 08:59:04;;;;;;;10.77;2.95;;;16.70;67.40;;;;;;5103330;28;20415;-61
2022/10/07 09:01:55;;;;;;;10.50;2.50;;;17.00;66.60;;;;;;5116035;28;20084;-62
2022/10/07 09:04:44;;;;;;;12.70;2.25;;;17.20;66.10;;;;;;5108669;27;20039;-61
2022/10/07 09:07:13;;;;;;;8.45;2.42;;;17.40;65.40;;;;;;5117088;28;20116;-61
2022/10/07 09:10:08;;;;;;;9.93;2.40;;;17.60;65.00;;;;;;5115952;28;20089;-61
2022/10/07 09:12:48;;;;;;;9.32;2.33;;;17.70;64.30;;;;;;5110871;28;20062;-61
2022/10/07 09:15:26;;;;;;;9.48;2.42;;;17.80;64.00;;;;;;5116709;28;20100;-61
2022/10/07 09:18:01;;;;;;;8.77;2.22;;;17.90;63.90;;;;;;5116541;28;20345;-61
2022/10/07 09:20:33;;;;;;;9.13;3.13;;;18.10;63.50;;;;;;5120467;27;20372;-61
2022/10/07 09:23:00;;;;;;;13.43;2.78;;;18.20;63.20;;;;;;5116036;28;20430;-61
2022/10/07 09:25:28;;;;;;;11.02;3.00;;;18.30;63.00;;;;;;5098370;28;20030;-60
2022/10/07 09:27:54;;;;;;;10.32;2.95;;;18.50;62.60;;;;;;5116002;28;20020;-60
2022/10/07 09:30:22;;;;;;;12.38;2.50;;;18.60;62.10;;;;;;5116688;28;20042;-60
2022/10/07 09:32:52;;;;;;;11.30;2.28;;;18.50;62.20;;;;;;5116455;27;20030;-60
2022/10/07 09:35:20;;;;;;;7.70;2.38;;;18.40;62.40;;;;;;5117001;27;20032;-58
2022/10/07 09:38:08;;;;;;;10.57;2.95;;;18.20;62.60;;;;;;5120068;27;20472;-60
2022/10/07 09:41:29;;;;;;;8.93;2.20;;;18.00;63.00;;;;;;5115302;28;20035;-60
2022/10/07 09:43:27;;;;;;;8.88;2.03;;;17.70;63.20;;;;;;5110346;27;20622;-60
2022/10/07 09:45:54;;;;;;;9.70;2.33;;;17.50;63.70;;;;;;5115146;28;20027;-62
2022/10/07 09:48:26;;;;;;;6.95;2.15;;;17.40;64.00;;;;;;5115068;27;20023;-60
2022/10/07 09:51:09;;;;;;;;;;;17.20;64.30;;;;;;5121496;27;20031;-60
2022/10/07 09:53:35;;;;;;;10.00;2.42;;;17.10;64.70;;;;;;5119524;27;19949;-60
2022/10/07 09:56:01;;;;;;;9.65;2.50;;;17.00;64.90;;;;;;5116986;27;20056;-59
2022/10/07 09:58:29;;;;;;;6.45;2.25;;;16.90;65.10;;;;;;5114832;27;20058;-60
2022/10/07 10:00:57;;;;;;;7.05;1.70;;;16.90;65.10;;;;;;5115472;28;20024;-60
2022/10/07 10:03:34;;;;;;;12.43;2.80;;;16.90;65.20;;;;;;5115584;27;20027;-59
2022/10/07 10:06:08;;;;;;;9.88;2.33;;;16.90;65.10;;;;;;5124338;27;20039;-59
2022/10/07 10:08:40;;;;;;;9.38;1.98;;;16.90;65.10;;;;;;5123114;27;20032;-59
2022/10/07 10:11:27;;;;;;;9.70;2.17;;;16.90;65.10;;;;;;5107098;28;20031;-60
2022/10/07 10:13:53;;;;;;;11.43;2.60;;;16.90;65.20;;;;;;5126155;27;20027;-60
2022/10/07 10:16:24;;;;;;;11.00;2.17;;;16.80;65.10;;;;;;5115298;28;20038;-60
2022/10/07 10:18:57;;;;;;;10.68;2.40;;;16.80;65.30;;;;;;5117128;27;20044;-60
2022/10/07 10:21:38;;;;;;;9.32;2.22;;;16.90;65.30;;;;;;5100396;28;20041;-60
2022/10/07 10:24:12;;;;;;;13.73;2.42;;;16.90;65.30;;;;;;5113067;28;20471;-60
2022/10/07 10:27:02;;;;;;;7.70;2.30;;;17.00;65.30;;;;;;5115207;27;20055;-60
2022/10/07 10:30:05;;;;;;;7.43;1.90;;;17.10;65.20;;;;;;5113357;28;20410;-60
2022/10/07 10:32:52;;;;;;;8.95;1.83;;;17.10;65.00;;;;;;5100900;28;20046;-60
2022/10/07 10:35:27;;;;;;;8.43;2.33;;;17.10;64.60;;;;;;5129704;27;20414;-60
2022/10/07 10:38:09;;;;;;;8.27;1.98;;;17.20;64.40;;;;;;5114421;27;20036;-60
2022/10/07 10:40:40;;;;;;;7.38;1.88;;;17.20;64.90;;;;;;5113189;28;20347;-59
2022/10/07 10:43:24;;;;;;;11.88;2.80;;;17.20;64.30;;;;;;5114653;28;20229;-60
2022/10/07 10:45:50;;;;;;;10.20;1.90;;;17.20;64.20;;;;;;5114500;28;20035;-60
2022/10/07 10:48:18;;;;;;;10.23;2.35;;;17.30;64.10;;;;;;5113995;28;20020;-59
2022/10/07 10:51:20;;;;;;;10.60;2.17;;;17.40;64.30;;;;;;5114609;28;20054;-59
2022/10/07 10:54:13;;;;;;;9.50;1.85;;;17.40;63.80;;;;;;5112528;28;20343;-62
2022/10/07 10:57:16;;;;;;;9.68;2.10;;;17.50;63.60;;;;;;5114101;28;20341;-60
2022/10/07 10:59:59;;;;;;;8.82;1.85;;;17.60;63.20;;;;;;5117546;28;20028;-60
2022/10/07 11:02:32;;;;;;;9.55;2.00;;;17.70;62.90;;;;;;5117464;28;20024;-60
2022/10/07 11:05:23;;;;;;;9.05;2.10;;;17.90;62.80;;;;;;5114317;28;20462;-60
2022/10/07 11:08:16;;;;;;;7.10;2.05;;;18.00;62.40;;;;;;5132237;27;20038;-60
2022/10/07 11:11:10;;;;;;;7.07;1.67;;;18.10;62.20;;;;;;5103092;28;20024;-61
2022/10/07 11:13:59;;;;;;;7.38;2.00;;;18.30;61.70;;;;;;5113337;28;20077;-59
2022/10/07 11:16:48;;;;;;;9.48;2.00;;;18.50;61.20;;;;;;5114682;28;20040;-60
2022/10/07 11:19:33;;;;;;;10.23;2.40;;;18.70;60.90;;;;;;5114189;28;20074;-60
2022/10/07 11:22:00;;;;;;;6.43;1.98;;;18.90;60.60;;;;;;5112437;28;20035;-59
2022/10/07 11:24:35;;;;;;;10.80;1.88;;;19.00;60.40;;;;;;5114578;28;20434;-61
2022/10/07 11:27:15;;;;;;;7.35;2.00;;;19.10;59.90;;;;;;5114192;28;20093;-60
2022/10/07 11:29:48;;;;;;;8.40;1.80;;;19.20;59.60;;;;;;5114672;28;20027;-60
2022/10/07 11:32:43;;;;;;;9.65;2.03;;;19.20;59.40;;;;;;5113691;28;20065;-60
2022/10/07 11:35:11;;;;;;;9.38;1.95;;;19.20;59.20;;;;;;5133329;27;20471;-60
2022/10/07 11:37:41;;;;;;;7.57;1.92;;;19.30;59.00;;;;;;5118742;28;20096;-60
2022/10/07 11:40:08;;;;;;;7.88;1.75;;;19.40;58.90;;;;;;5118437;28;20039;-59
2022/10/07 11:42:48;;;;;;;9.10;2.10;;;19.40;58.50;;;;;;5118307;28;20398;-60
2022/10/07 11:45:25;;;;;;;11.48;2.35;;;19.40;58.40;;;;;;5118814;28;20440;-60
2022/10/07 11:48:05;;;;;;;9.68;1.77;;;19.40;58.50;;;;;;5105705;28;20051;-60
2022/10/07 11:50:37;;;;;;;8.60;1.90;;;19.50;58.40;;;;;;5118178;28;20024;-60
2022/10/07 11:53:07;;;;;;;8.10;1.95;;;19.50;58.30;;;;;;5121204;27;20354;-60
2022/10/07 11:55:39;;;;;;;8.02;1.63;;;19.60;58.20;;;;;;5124022;27;20305;-60
2022/10/07 11:58:05;;;;;;;10.35;2.08;;;19.60;58.10;;;;;;5118366;28;20037;-60
2022/10/07 12:00:37;;;;;;;6.95;1.95;;;19.60;58.10;;;;;;5117681;28;20035;-60
2022/10/07 12:03:32;;;;;;;7.25;1.77;;;19.60;57.80;;;;;;5118222;28;20055;-60
2022/10/07 12:06:10;;;;;;;8.38;2.20;;;19.60;57.70;;;;;;5122670;27;20039;-60
2022/10/07 12:08:41;;;;;;;9.32;2.20;;;19.60;57.70;;;;;;5119279;27;20028;-60
2022/10/07 12:11:13;;;;;;;9.70;1.80;;;19.50;58.50;;;;;;5134358;27;20108;-60
2022/10/07 12:13:52;;;;;;;8.55;1.75;;;19.50;57.70;;;;;;5134127;27;20118;-60
2022/10/07 12:16:26;;;;;;;10.18;2.33;;;19.50;57.40;;;;;;5104678;28;20035;-60
2022/10/07 12:19:07;;;;;;;6.07;1.92;;;19.50;57.40;;;;;;5118133;28;20043;-60
2022/10/07 12:22:07;;;;;;;7.90;2.10;;;19.40;57.30;;;;;;5119449;27;20440;-60
2022/10/07 12:24:35;;;;;;;10.40;2.15;;;19.40;57.40;;;;;;5117651;28;20096;-60
2022/10/07 12:27:13;;;;;;;4.88;1.70;;;19.30;57.50;;;;;;5117034;28;20038;-60
2022/10/07 12:29:57;;;;;;;9.40;2.67;;;19.40;57.40;;;;;;5117707;28;20027;-60
2022/10/07 12:33:00;;;;;;;9.02;2.20;;;19.30;57.40;;;;;;5119478;27;20088;-60
2022/10/07 12:35:33;;;;;;;10.25;2.30;;;19.30;57.30;;;;;;5123355;27;20030;-59
2022/10/07 12:38:13;;;;;;;7.55;2.03;;;19.20;57.30;;;;;;5116998;28;20100;-60
2022/10/07 12:40:41;;;;;;;8.30;2.22;;;19.20;57.20;;;;;;5121229;27;20028;-61
2022/10/07 12:43:16;;;;;;;7.82;1.65;;;19.10;57.20;;;;;;5119725;27;20028;-60
2022/10/07 12:45:42;;;;;;;6.28;2.03;;;19.10;57.20;;;;;;5124188;27;20112;-60
2022/10/07 12:48:16;;;;;;;6.75;2.00;;;19.00;57.20;;;;;;5116045;27;20027;-60
2022/10/07 12:50:44;;;;;;;7.05;1.60;;;19.00;57.20;;;;;;5116492;28;20028;-60
2022/10/07 12:53:11;;;;;;;9.75;2.10;;;19.00;57.30;;;;;;5115815;28;20101;-60
2022/10/07 12:55:45;;;;;;;8.05;1.92;;;18.90;57.20;;;;;;5117299;28;20046;-60
2022/10/07 13:01:10;;;;;;;6.82;1.77;;;18.80;57.20;;;;;;5104609;28;20035;-60
2022/10/07 13:04:09;;;;;;;7.13;2.00;;;18.80;57.20;;;;;;5116550;27;20035;-60
2022/10/07 13:06:47;;;;;;;5.90;1.63;;;18.80;57.10;;;;;;5125666;27;20034;-60
2022/10/07 13:09:41;;;;;;;7.22;1.60;;;18.70;57.20;;;;;;5116933;27;20031;-60
2022/10/07 13:12:22;;;;;;;5.55;1.65;;;18.70;56.90;;;;;;5117496;28;20028;-60
2022/10/07 13:15:04;;;;;;;;;;;18.60;56.80;;;;;;5124111;27;20032;-60
2022/10/07 13:17:40;;;;;;;7.03;1.60;;;18.50;57.10;;;;;;5113625;28;20339;-60
2022/10/07 13:20:31;;;;;;;6.93;1.75;;;18.50;57.10;;;;;;5116880;27;20378;-60